createdAt,value
2022-09-16T00:00:25.568Z,1.52
2022-09-16T00:02:53.383Z,2.05
2022-09-16T00:05:20.501Z,1.80
2022-09-16T00:07:47.308Z,1.55
2022-09-16T00:10:14.119Z,1.75
2022-09-16T00:12:41.358Z,2.15
2022-09-16T00:15:08.987Z,1.88
2022-09-16T00:17:35.788Z,1.73
2022-09-16T00:20:03.468Z,1.80
2022-09-16T00:22:30.157Z,1.90
2022-09-16T00:24:56.961Z,1.75
2022-09-16T00:27:23.771Z,2.08
2022-09-16T00:29:50.678Z,1.80
2022-09-16T00:32:17.439Z,1.85
2022-09-16T00:34:44.170Z,1.95
2022-09-16T00:37:10.875Z,2.00
2022-09-16T00:39:37.957Z,1.60
2022-09-16T00:42:05.368Z,1.67
2022-09-16T00:45:13.291Z,1.70
2022-09-16T00:48:01.790Z,1.92
2022-09-16T00:50:54.042Z,2.00
2022-09-16T00:53:28.077Z,1.80
2022-09-16T00:55:58.311Z,1.50
2022-09-16T00:58:45.984Z,2.05
2022-09-16T01:01:12.856Z,1.90
2022-09-16T01:03:48.875Z,1.60
2022-09-16T01:06:18.115Z,1.60
2022-09-16T01:08:46.173Z,2.03
2022-09-16T01:11:13.067Z,2.33
2022-09-16T01:13:41.491Z,1.50
2022-09-16T01:16:47.979Z,1.40
2022-09-16T01:19:50.679Z,2.20
2022-09-16T01:22:44.561Z,1.35
2022-09-16T01:25:31.122Z,1.42
2022-09-16T01:28:28.320Z,1.60
2022-09-16T01:31:22.729Z,1.40
2022-09-16T01:34:12.069Z,1.92
2022-09-16T01:36:51.961Z,1.70
2022-09-16T01:39:53.236Z,1.75
2022-09-16T01:42:28.949Z,1.75
2022-09-16T01:45:18.275Z,1.80
2022-09-16T01:47:56.372Z,1.67
2022-09-16T01:51:05.096Z,1.70
2022-09-16T01:53:31.792Z,1.80
2022-09-16T01:56:05.977Z,1.83
2022-09-16T01:58:58.099Z,1.85
2022-09-16T02:01:48.018Z,1.60
2022-09-16T02:04:39.487Z,1.08
2022-09-16T02:07:09.361Z,1.15
2022-09-16T02:09:42.412Z,1.45
2022-09-16T02:12:17.188Z,1.88
2022-09-16T02:14:47.307Z,1.73
2022-09-16T02:17:18.550Z,1.58
2022-09-16T02:20:07.933Z,1.70
2022-09-16T02:22:44.714Z,1.63
2022-09-16T02:25:14.214Z,2.08
2022-09-16T02:27:43.531Z,1.50
2022-09-16T02:30:16.721Z,2.10
2022-09-16T02:33:07.270Z,1.92
2022-09-16T02:35:37.100Z,1.90
2022-09-16T02:38:26.803Z,1.85
2022-09-16T02:40:57.156Z,1.70
2022-09-16T02:43:25.595Z,1.70
2022-09-16T02:46:15.065Z,1.83
2022-09-16T02:48:59.670Z,1.80
2022-09-16T02:51:57.562Z,2.03
2022-09-16T02:54:48.357Z,1.77
2022-09-16T02:57:16.040Z,2.00
2022-09-16T02:59:43.288Z,1.67
2022-09-16T03:02:10.398Z,1.83
2022-09-16T03:04:37.280Z,1.67
2022-09-16T03:07:08.153Z,1.60
2022-09-16T03:09:40.162Z,1.98
2022-09-16T03:12:30.034Z,1.38
2022-09-16T03:15:15.689Z,2.13
2022-09-16T03:18:16.782Z,1.70
2022-09-16T03:20:55.190Z,1.97
2022-09-16T03:23:48.535Z,1.60
2022-09-16T03:26:35.472Z,1.65
2022-09-16T03:29:20.637Z,1.70
2022-09-16T03:32:11.894Z,2.00
2022-09-16T03:34:48.660Z,2.03
2022-09-16T03:37:18.754Z,1.48
2022-09-16T03:39:55.452Z,1.50
2022-09-16T03:42:22.516Z,1.50
2022-09-16T03:44:49.372Z,1.60
2022-09-16T03:47:16.783Z,1.70
2022-09-16T03:49:43.723Z,1.33
2022-09-16T03:52:10.719Z,1.67
2022-09-16T03:54:38.011Z,1.55
2022-09-16T03:57:05.859Z,1.65
2022-09-16T03:59:32.987Z,1.48
2022-09-16T04:01:59.787Z,1.63
2022-09-16T04:04:26.645Z,1.73
2022-09-16T04:06:53.486Z,1.50
2022-09-16T04:09:20.326Z,1.52
2022-09-16T04:11:47.150Z,1.63
2022-09-16T04:14:14.405Z,1.60
2022-09-16T04:16:45.006Z,1.42
2022-09-16T04:19:13.814Z,1.40
2022-09-16T04:21:41.737Z,1.52
2022-09-16T04:24:12.957Z,2.20
2022-09-16T04:26:40.870Z,2.00
2022-09-16T04:29:07.762Z,2.28
2022-09-16T04:31:34.573Z,1.50
2022-09-16T04:34:02.161Z,2.00
2022-09-16T04:36:29.014Z,2.45
2022-09-16T04:38:55.752Z,1.95
2022-09-16T04:41:26.289Z,1.65
2022-09-16T04:43:57.719Z,1.75
2022-09-16T04:46:25.837Z,1.65
2022-09-16T04:48:54.174Z,1.90
2022-09-16T04:51:22.513Z,1.55
2022-09-16T04:53:50.104Z,1.80
2022-09-16T04:56:22.817Z,1.80
2022-09-16T04:58:52.421Z,1.88
2022-09-16T05:01:25.238Z,1.90
2022-09-16T05:03:54.850Z,1.75
2022-09-16T05:06:24.379Z,1.92
2022-09-16T05:08:53.423Z,1.95
2022-09-16T05:11:27.569Z,1.90
2022-09-16T05:13:55.714Z,1.90
2022-09-16T05:16:23.424Z,1.98
2022-09-16T05:18:53.355Z,1.95
2022-09-16T05:21:22.407Z,2.03
2022-09-16T05:23:49.294Z,1.90
2022-09-16T05:26:25.900Z,2.05
2022-09-16T05:28:53.653Z,1.98
2022-09-16T05:31:26.866Z,2.08
2022-09-16T05:34:18.560Z,2.75
2022-09-16T05:36:47.565Z,2.38
2022-09-16T05:39:25.784Z,1.70
2022-09-16T05:41:58.369Z,2.10
2022-09-16T05:44:26.457Z,1.80
2022-09-16T05:46:53.777Z,1.88
2022-09-16T05:49:21.131Z,2.10
2022-09-16T05:51:49.119Z,2.03
2022-09-16T05:54:18.618Z,1.73
2022-09-16T05:56:46.519Z,2.10
2022-09-16T05:59:14.773Z,2.00
2022-09-16T06:01:41.626Z,1.58
2022-09-16T06:04:11.515Z,1.90
2022-09-16T06:06:40.315Z,1.88
2022-09-16T06:09:16.513Z,2.15
2022-09-16T06:11:45.607Z,1.88
2022-09-16T06:14:13.579Z,2.08
2022-09-16T06:16:40.771Z,2.05
2022-09-16T06:19:10.706Z,2.55
2022-09-16T06:21:38.366Z,2.03
2022-09-16T06:24:09.094Z,2.10
2022-09-16T06:26:41.480Z,1.63
2022-09-16T06:29:09.335Z,1.92
2022-09-16T06:31:37.552Z,2.13
2022-09-16T06:34:05.419Z,1.85
2022-09-16T06:36:38.499Z,1.95
2022-09-16T06:39:07.337Z,2.03
2022-09-16T06:41:34.721Z,2.15
2022-09-16T06:44:01.906Z,2.08
2022-09-16T06:46:29.476Z,2.28
2022-09-16T06:49:00.388Z,2.40
2022-09-16T06:51:30.987Z,2.33
2022-09-16T06:54:09.108Z,2.47
2022-09-16T06:56:37.628Z,2.63
2022-09-16T06:59:04.447Z,1.58
2022-09-16T07:01:32.311Z,2.13
2022-09-16T07:04:02.258Z,1.70
2022-09-16T07:06:52.244Z,2.17
2022-09-16T07:09:17.635Z,2.53
2022-09-16T07:11:44.370Z,1.95
2022-09-16T07:14:11.146Z,1.52
2022-09-16T07:16:37.878Z,1.38
2022-09-16T07:19:04.853Z,1.45
2022-09-16T07:21:31.959Z,1.60
2022-09-16T07:24:01.229Z,1.55
2022-09-16T07:26:31.337Z,1.60
2022-09-16T07:29:00.784Z,1.15
2022-09-16T07:31:31.603Z,1.63
2022-09-16T07:34:03.792Z,1.40
2022-09-16T07:36:34.626Z,1.58
2022-09-16T07:39:02.256Z,1.60
2022-09-16T07:41:32.538Z,1.63
2022-09-16T07:44:00.614Z,1.17
2022-09-16T07:46:29.556Z,1.20
2022-09-16T07:48:58.286Z,1.40
2022-09-16T07:51:26.049Z,1.80
2022-09-16T07:53:59.360Z,1.63
2022-09-16T07:56:29.011Z,1.60
2022-09-16T07:58:57.548Z,1.50
2022-09-16T08:01:25.528Z,1.30
2022-09-16T08:03:52.688Z,1.80
2022-09-16T08:06:22.509Z,1.88
2022-09-16T08:08:52.755Z,1.27
2022-09-16T08:11:20.265Z,1.70
2022-09-16T08:13:47.387Z,1.63
2022-09-16T08:16:18.471Z,1.35
2022-09-16T08:18:47.303Z,1.60
2022-09-16T08:21:16.894Z,1.30
2022-09-16T08:23:44.409Z,1.10
2022-09-16T08:26:12.355Z,1.35
2022-09-16T08:28:51.160Z,1.40
2022-09-16T08:31:28.341Z,2.20
2022-09-16T08:33:55.044Z,1.40
2022-09-16T08:36:24.144Z,1.90
2022-09-16T08:38:53.289Z,1.98
2022-09-16T08:41:42.737Z,1.80
2022-09-16T08:44:24.710Z,1.83
2022-09-16T08:47:08.970Z,1.63
2022-09-16T08:49:43.895Z,2.35
2022-09-16T08:52:22.187Z,2.80
2022-09-16T08:54:52.884Z,2.10
2022-09-16T08:57:30.532Z,2.47
2022-09-16T09:00:08.339Z,2.15
2022-09-16T09:02:57.025Z,2.10
2022-09-16T09:05:51.229Z,1.33
2022-09-16T09:08:45.383Z,1.65
2022-09-16T09:11:15.261Z,1.80
2022-09-16T09:14:01.236Z,1.75
2022-09-16T09:16:40.351Z,1.60
2022-09-16T09:19:49.438Z,1.35
2022-09-16T09:22:37.534Z,1.40
2022-09-16T09:25:22.168Z,1.42
2022-09-16T09:27:57.705Z,1.60
2022-09-16T09:30:26.421Z,1.60
2022-09-16T09:33:10.773Z,1.70
2022-09-16T09:36:23.100Z,1.15
2022-09-16T09:39:19.166Z,1.50
2022-09-16T09:41:48.241Z,1.58
2022-09-16T09:44:33.837Z,1.80
2022-09-16T09:47:10.876Z,1.27
2022-09-16T09:49:50.764Z,1.60
2022-09-16T09:52:26.468Z,1.65
2022-09-16T09:54:54.159Z,1.10
2022-09-16T09:57:43.182Z,1.65
2022-09-16T10:00:15.786Z,1.73
2022-09-16T10:02:49.588Z,1.58
2022-09-16T10:05:26.021Z,1.75
2022-09-16T10:07:55.753Z,1.02
2022-09-16T10:10:24.479Z,1.63
2022-09-16T10:12:51.901Z,1.83
2022-09-16T10:15:29.218Z,1.50
2022-09-16T10:17:59.188Z,1.20
2022-09-16T10:20:35.853Z,1.33
2022-09-16T10:23:20.512Z,1.25
2022-09-16T10:25:47.195Z,1.00
2022-09-16T10:28:23.177Z,0.90
2022-09-16T10:30:54.239Z,1.25
2022-09-16T10:33:42.764Z,1.80
2022-09-16T10:36:17.212Z,1.80
2022-09-16T10:38:50.598Z,1.08
2022-09-16T10:41:28.369Z,1.38
2022-09-16T10:43:58.988Z,1.70
2022-09-16T10:46:26.265Z,1.17
2022-09-16T10:49:09.348Z,1.40
2022-09-16T10:51:36.256Z,1.00
2022-09-16T10:54:06.035Z,0.73
2022-09-16T10:56:35.090Z,0.77
2022-09-16T10:59:20.082Z,0.75
2022-09-16T11:01:53.731Z,0.75
2022-09-16T11:04:42.365Z,0.73
2022-09-16T11:07:33.375Z,0.68
2022-09-16T11:10:23.245Z,0.57
2022-09-16T11:13:11.300Z,0.50
2022-09-16T11:15:44.925Z,0.68
2022-09-16T11:18:40.123Z,0.70
2022-09-16T11:21:30.738Z,0.30
2022-09-16T11:24:28.345Z,0.30
2022-09-16T11:27:12.782Z,0.50
2022-09-16T11:29:45.384Z,0.40
2022-09-16T11:32:29.084Z,0.30
2022-09-16T11:35:19.586Z,0.40
2022-09-16T11:38:08.640Z,0.57
2022-09-16T11:41:03.693Z,0.50
2022-09-16T11:43:48.338Z,0.38
2022-09-16T11:46:21.291Z,0.47
2022-09-16T11:49:17.245Z,0.30
2022-09-16T11:52:11.386Z,0.40
2022-09-16T11:54:59.851Z,0.60
2022-09-16T11:57:32.347Z,0.30
2022-09-16T12:00:16.765Z,0.60
2022-09-16T12:02:46.317Z,0.73
2022-09-16T12:05:41.719Z,0.82
2022-09-16T12:08:24.451Z,0.68
2022-09-16T12:11:09.503Z,0.88
2022-09-16T12:13:40.096Z,0.50
2022-09-16T12:16:12.609Z,0.60
2022-09-16T12:18:44.850Z,0.60
2022-09-16T12:21:23.034Z,0.70
2022-09-16T12:24:01.582Z,0.60
2022-09-16T12:26:36.090Z,0.47
2022-09-16T12:29:15.923Z,0.43
2022-09-16T12:31:54.278Z,0.85
2022-09-16T12:34:22.624Z,0.40
2022-09-16T12:37:00.194Z,0.63
2022-09-16T12:39:26.856Z,0.60
2022-09-16T12:42:02.423Z,0.60
2022-09-16T12:44:57.940Z,0.47
2022-09-16T12:47:49.151Z,1.35
2022-09-16T12:50:33.761Z,0.52
2022-09-16T12:53:37.664Z,0.57
2022-09-16T12:56:19.781Z,0.30
2022-09-16T12:59:02.183Z,0.43
2022-09-16T13:01:42.423Z,0.57
2022-09-16T13:04:14.706Z,0.50
2022-09-16T13:06:48.230Z,0.68
2022-09-16T13:09:17.724Z,0.47
2022-09-16T13:12:31.737Z,0.60
2022-09-16T13:14:48.175Z,0.40
2022-09-16T13:17:14.993Z,0.68
2022-09-16T13:19:53.177Z,0.45
2022-09-16T13:22:27.062Z,0.65
2022-09-16T13:24:58.545Z,0.90
2022-09-16T13:29:52.059Z,0.57
2022-09-16T13:32:25.612Z,0.60
2022-09-16T13:35:04.682Z,0.50
2022-09-16T13:37:31.549Z,0.60
2022-09-16T13:40:09.579Z,0.60
2022-09-16T13:42:36.493Z,0.52
2022-09-16T13:45:03.395Z,0.60
2022-09-16T13:47:34.346Z,0.40
2022-09-16T13:52:36.842Z,0.30
2022-09-16T13:55:11.111Z,0.50
2022-09-16T13:57:38.756Z,0.50
2022-09-16T14:00:15.543Z,0.60
2022-09-16T14:02:53.896Z,0.57
2022-09-16T14:05:53.025Z,0.50
2022-09-16T14:08:43.936Z,0.50
2022-09-16T14:11:47.547Z,0.50
2022-09-16T14:14:47.473Z,0.60
2022-09-16T14:17:24.318Z,0.40
2022-09-16T14:19:57.387Z,0.52
2022-09-16T14:22:26.776Z,0.30
2022-09-16T14:25:05.794Z,0.30
2022-09-16T14:27:40.215Z,0.50
2022-09-16T14:30:16.890Z,0.70
2022-09-16T14:32:44.786Z,0.50
2022-09-16T14:35:24.103Z,0.40
2022-09-16T14:37:56.517Z,0.28
2022-09-16T14:40:25.745Z,0.50
2022-09-16T14:42:54.323Z,0.30
2022-09-16T14:45:22.236Z,0.30
2022-09-16T14:47:52.238Z,0.45
2022-09-16T14:50:30.791Z,0.30
2022-09-16T14:53:00.084Z,0.30
2022-09-16T14:55:33.576Z,0.40
2022-09-16T14:58:01.248Z,0.20
2022-09-16T15:00:45.383Z,0.20
2022-09-16T15:03:19.029Z,0.30
2022-09-16T15:05:47.255Z,0.40
2022-09-16T15:08:23.407Z,0.30
2022-09-16T15:10:56.854Z,0.30
2022-09-16T15:13:44.797Z,0.43
2022-09-16T15:16:14.772Z,0.20
2022-09-16T15:18:52.313Z,0.40
2022-09-16T15:21:23.572Z,0.30
2022-09-16T15:23:53.273Z,0.38
2022-09-16T15:26:38.665Z,0.38
2022-09-16T15:31:44.514Z,0.20
2022-09-16T15:34:23.493Z,0.30
2022-09-16T15:36:59.044Z,0.30
2022-09-16T15:39:31.472Z,0.20
2022-09-16T15:42:17.463Z,0.22
2022-09-16T15:44:45.073Z,0.40
2022-09-16T15:47:22.171Z,0.30
2022-09-16T15:49:59.253Z,0.25
2022-09-16T15:52:26.227Z,0.30
2022-09-16T15:55:00.870Z,0.38
2022-09-16T15:57:40.409Z,0.40
2022-09-16T16:00:13.078Z,0.30
2022-09-16T16:02:53.334Z,0.30
2022-09-16T16:05:23.853Z,0.32
2022-09-16T16:07:53.478Z,0.40
2022-09-16T16:10:23.791Z,0.43
2022-09-16T16:12:52.962Z,0.55
2022-09-16T16:15:22.269Z,0.30
2022-09-16T16:17:49.859Z,0.40
2022-09-16T16:20:17.849Z,0.25
2022-09-16T16:22:45.291Z,0.40
2022-09-16T16:25:13.615Z,0.30
2022-09-16T16:27:40.633Z,0.20
2022-09-16T16:30:08.497Z,0.30
2022-09-16T16:32:35.551Z,0.40
2022-09-16T16:35:02.274Z,0.30
2022-09-16T16:37:45.352Z,0.40
2022-09-16T16:40:13.516Z,0.30
2022-09-16T16:42:42.994Z,0.30
2022-09-16T16:45:11.534Z,0.30
2022-09-16T16:47:41.323Z,0.35
2022-09-16T16:50:09.765Z,0.30
2022-09-16T16:52:37.052Z,0.50
2022-09-16T16:55:04.194Z,0.40
2022-09-16T16:57:30.857Z,0.45
2022-09-16T16:59:57.570Z,0.70
2022-09-16T17:02:24.635Z,0.40
2022-09-16T17:04:51.529Z,0.20
2022-09-16T17:07:27.314Z,0.30
2022-09-16T17:09:57.031Z,0.25
2022-09-16T17:12:23.783Z,0.40
2022-09-16T17:14:50.514Z,0.35
2022-09-16T17:17:17.169Z,0.50
2022-09-16T17:19:43.984Z,0.60
2022-09-16T17:22:11.161Z,0.25
2022-09-16T17:24:38.488Z,0.32
2022-09-16T17:27:05.283Z,0.30
2022-09-16T17:29:32.413Z,0.40
2022-09-16T17:32:02.358Z,0.32
2022-09-16T17:34:29.967Z,0.30
2022-09-16T17:36:57.487Z,0.38
2022-09-16T17:39:25.745Z,0.50
2022-09-16T17:41:52.431Z,0.38
2022-09-16T17:44:19.521Z,0.47
2022-09-16T17:46:47.249Z,1.00
2022-09-16T17:49:21.129Z,0.20
2022-09-16T17:51:48.263Z,0.30
2022-09-16T17:54:15.151Z,0.38
2022-09-16T17:56:45.285Z,0.35
2022-09-16T17:59:13.863Z,0.40
2022-09-16T18:01:41.181Z,0.63
2022-09-16T18:04:08.064Z,0.40
2022-09-16T18:06:43.367Z,0.45
2022-09-16T18:09:10.929Z,0.30
2022-09-16T18:11:38.711Z,0.52
2022-09-16T18:14:07.873Z,0.30
2022-09-16T18:16:35.279Z,0.35
2022-09-16T18:19:03.925Z,0.35
2022-09-16T18:21:31.596Z,0.28
2022-09-16T18:24:02.064Z,0.40
2022-09-16T18:26:30.069Z,0.38
2022-09-16T18:29:13.875Z,0.40
2022-09-16T18:31:43.818Z,0.22
2022-09-16T18:34:11.066Z,0.45
2022-09-16T18:36:39.313Z,0.60
2022-09-16T18:39:10.287Z,0.70
2022-09-16T18:41:38.986Z,0.52
2022-09-16T18:44:17.778Z,0.52
2022-09-16T18:46:44.484Z,0.47
2022-09-16T18:49:13.978Z,0.55
2022-09-16T18:51:47.270Z,0.40
2022-09-16T18:54:24.689Z,0.50
2022-09-16T18:56:52.915Z,0.43
2022-09-16T18:59:23.375Z,0.38
2022-09-16T19:01:56.035Z,0.40
2022-09-16T19:04:25.213Z,0.40
2022-09-16T19:06:54.075Z,0.50
2022-09-16T19:09:23.375Z,0.38
2022-09-16T19:11:52.720Z,0.28
2022-09-16T19:14:22.411Z,0.40
2022-09-16T19:16:49.201Z,0.32
2022-09-16T19:19:16.092Z,0.30
2022-09-16T19:21:43.466Z,0.30
2022-09-16T19:24:16.944Z,0.35
2022-09-16T19:26:45.118Z,0.50
2022-09-16T19:29:13.308Z,0.73
2022-09-16T19:31:41.648Z,0.45
2022-09-16T19:34:09.076Z,0.30
2022-09-16T19:36:37.055Z,0.35
2022-09-16T19:39:05.921Z,0.40
2022-09-16T19:41:36.941Z,0.40
2022-09-16T19:44:06.359Z,0.60
2022-09-16T19:46:36.486Z,0.30
2022-09-16T19:49:04.140Z,0.20
2022-09-16T19:51:31.718Z,0.30
2022-09-16T19:54:00.613Z,0.40
2022-09-16T19:56:31.150Z,0.35
2022-09-16T19:58:57.997Z,0.40
2022-09-16T20:01:27.363Z,0.40
2022-09-16T20:03:55.027Z,0.50
2022-09-16T20:06:24.798Z,0.28
2022-09-16T20:08:56.785Z,0.30
2022-09-16T20:11:25.693Z,0.47
2022-09-16T20:13:55.361Z,0.52
2022-09-16T20:16:24.443Z,0.50
2022-09-16T20:18:51.574Z,0.50
2022-09-16T20:21:20.779Z,0.50
2022-09-16T20:23:48.041Z,0.60
2022-09-16T20:26:19.542Z,0.70
2022-09-16T20:28:51.167Z,0.38
2022-09-16T20:31:26.497Z,0.55
2022-09-16T20:33:53.984Z,0.70
2022-09-16T20:36:23.450Z,0.30
2022-09-16T20:38:51.144Z,0.50
2022-09-16T20:41:28.481Z,0.55
2022-09-16T20:43:55.535Z,0.60
2022-09-16T20:46:24.792Z,0.40
2022-09-16T20:48:59.214Z,0.50
2022-09-16T20:51:31.425Z,0.73
2022-09-16T20:54:07.053Z,0.60
2022-09-16T20:56:38.682Z,0.50
2022-09-16T20:59:13.060Z,0.40
2022-09-16T21:01:41.449Z,0.32
2022-09-16T21:04:12.659Z,0.30
2022-09-16T21:06:39.356Z,0.50
2022-09-16T21:09:10.123Z,0.43
2022-09-16T21:11:44.315Z,0.40
2022-09-16T21:14:13.050Z,0.30
2022-09-16T21:16:40.898Z,0.30
2022-09-16T21:19:09.803Z,0.40
2022-09-16T21:21:38.968Z,0.32
2022-09-16T21:24:07.258Z,0.30
2022-09-16T21:26:35.623Z,0.35
2022-09-16T21:29:05.566Z,0.22
2022-09-16T21:31:34.169Z,0.20
2022-09-16T21:34:03.056Z,0.40
2022-09-16T21:36:30.556Z,0.22
2022-09-16T21:38:57.832Z,0.10
2022-09-16T21:41:25.542Z,0.20
2022-09-16T21:43:57.638Z,0.40
2022-09-16T21:46:27.491Z,0.30
2022-09-16T21:49:01.084Z,0.20
2022-09-16T21:51:34.882Z,0.40
2022-09-16T21:54:06.995Z,0.30
2022-09-16T21:56:37.272Z,0.20
2022-09-16T21:59:04.566Z,0.20
2022-09-16T22:01:31.709Z,0.30
2022-09-16T22:03:59.834Z,0.35
2022-09-16T22:06:27.280Z,0.38
2022-09-16T22:08:55.634Z,0.50
2022-09-16T22:11:25.419Z,0.30
2022-09-16T22:13:53.715Z,0.52
2022-09-16T22:16:26.914Z,0.40
2022-09-16T22:18:55.458Z,0.20
2022-09-16T22:21:24.037Z,0.30
2022-09-16T22:23:50.883Z,0.30
2022-09-16T22:26:19.762Z,0.30
2022-09-16T22:28:46.990Z,0.50
2022-09-16T22:31:16.592Z,0.30
2022-09-16T22:33:45.381Z,0.60
2022-09-16T22:36:14.932Z,0.40
2022-09-16T22:38:46.954Z,0.55
2022-09-16T22:41:14.567Z,0.40
2022-09-16T22:43:43.946Z,0.40
2022-09-16T22:46:16.453Z,0.40
2022-09-16T22:48:43.867Z,0.40
2022-09-16T22:51:12.770Z,0.40
2022-09-16T22:53:40.677Z,0.50
2022-09-16T22:56:12.951Z,0.35
2022-09-16T22:58:40.154Z,0.70
2022-09-16T23:01:11.098Z,0.52
2022-09-16T23:03:38.452Z,0.88
2022-09-16T23:06:08.856Z,0.50
2022-09-16T23:08:37.738Z,0.28
2022-09-16T23:11:06.635Z,0.50
2022-09-16T23:13:34.958Z,0.40
2022-09-16T23:16:05.432Z,0.47
2022-09-16T23:18:33.983Z,0.40
2022-09-16T23:21:02.522Z,0.52
2022-09-16T23:23:31.630Z,0.38
2022-09-16T23:26:06.062Z,0.40
2022-09-16T23:28:33.468Z,0.55
2022-09-16T23:31:08.359Z,0.40
2022-09-16T23:33:35.583Z,0.47
2022-09-16T23:36:03.307Z,0.30
2022-09-16T23:38:30.778Z,0.60
2022-09-16T23:41:03.080Z,0.40
2022-09-16T23:43:30.038Z,0.30
2022-09-16T23:45:56.856Z,0.40
2022-09-16T23:48:23.688Z,0.30
2022-09-16T23:50:51.002Z,0.30
2022-09-16T23:53:17.683Z,0.30
2022-09-16T23:55:45.081Z,0.30
2022-09-16T23:58:11.880Z,0.55
